Time;durP1;ratioP1;P1;durP2;ratioP2;P2;SDS_P1;SDS_P2;PMS_P1;PMS_P2;Temp;Humidity;BMP_temperature;BMP_pressure;BME280_temperature;BME280_humidity;BME280_pressure;Samples;Min_cycle;Max_cycle;Signal;HPM_P1;HPM_P2
2021/12/10 00:00:39;;;;;;;9.68;5.15;;;4.50;96.70;;;;;;4871014;29;20048;-71
2021/12/10 00:03:11;;;;;;;7.33;4.90;;;4.40;96.70;;;;;;4866230;29;20048;-71
2021/12/10 00:05:54;;;;;;;5.85;4.72;;;4.40;96.70;;;;;;4874122;29;20053;-71
2021/12/10 00:08:29;;;;;;;7.35;4.75;;;4.40;96.70;;;;;;4855229;29;20637;-71
2021/12/10 00:11:01;;;;;;;6.28;5.03;;;4.50;96.70;;;;;;4850895;29;20526;-71
2021/12/10 00:13:29;;;;;;;9.43;3.97;;;4.40;96.70;;;;;;4869755;29;20056;-71
2021/12/10 00:15:59;;;;;;;7.78;4.50;;;4.40;96.70;;;;;;4870131;29;20049;-71
2021/12/10 00:18:33;;;;;;;6.03;4.22;;;4.30;96.70;;;;;;4869626;29;20049;-71
2021/12/10 00:21:04;;;;;;;5.32;3.78;;;4.40;96.70;;;;;;4870352;29;20464;-70
2021/12/10 00:23:33;;;;;;;5.03;3.63;;;4.40;96.70;;;;;;4870626;29;20148;-71
2021/12/10 00:26:04;;;;;;;4.97;2.72;;;4.30;96.70;;;;;;4856428;29;20056;-71
2021/12/10 00:28:38;;;;;;;4.07;3.13;;;4.40;96.70;;;;;;4855754;29;20049;-71
2021/12/10 00:31:21;;;;;;;6.03;3.08;;;4.50;96.70;;;;;;4871055;29;20044;-71
2021/12/10 00:33:53;;;;;;;5.00;3.45;;;4.40;96.70;;;;;;4852406;29;20053;-71
2021/12/10 00:36:22;;;;;;;6.10;4.20;;;4.40;96.70;;;;;;4876417;29;20041;-71
2021/12/10 00:38:51;;;;;;;6.40;4.07;;;4.30;96.70;;;;;;4870203;29;20037;-71
2021/12/10 00:41:20;;;;;;;5.78;3.55;;;4.20;96.70;;;;;;4855078;29;20439;-71
2021/12/10 00:43:48;;;;;;;5.97;3.35;;;4.20;96.70;;;;;;4870566;29;20045;-71
2021/12/10 00:46:18;;;;;;;5.18;3.75;;;4.20;96.70;;;;;;4876673;29;20618;-72
2021/12/10 00:48:46;;;;;;;5.47;3.90;;;4.30;96.70;;;;;;4857386;29;20037;-71
2021/12/10 00:51:14;;;;;;;5.43;3.58;;;4.30;96.70;;;;;;4869009;29;20132;-71
2021/12/10 00:53:43;;;;;;;5.32;3.25;;;4.20;96.70;;;;;;4852476;29;20045;-71
2021/12/10 00:56:11;;;;;;;6.00;3.13;;;4.20;96.70;;;;;;4869305;29;20077;-71
2021/12/10 00:58:40;;;;;;;4.35;3.30;;;4.30;96.70;;;;;;4855129;29;20818;-71
2021/12/10 01:01:13;;;;;;;4.47;3.08;;;4.30;96.70;;;;;;4869035;29;20555;-71
2021/12/10 01:03:46;;;;;;;4.93;3.63;;;4.20;96.70;;;;;;4868806;29;20076;-71
2021/12/10 01:06:16;;;;;;;4.20;2.97;;;4.20;96.70;;;;;;4867666;29;20033;-71
2021/12/10 01:08:49;;;;;;;4.53;3.10;;;4.10;96.70;;;;;;4874947;29;20065;-72
2021/12/10 01:11:22;;;;;;;4.93;3.10;;;4.10;96.70;;;;;;4869907;29;20041;-71
2021/12/10 01:13:56;;;;;;;3.90;3.05;;;4.10;96.70;;;;;;4867555;29;20045;-71
2021/12/10 01:27:00;;;;;;;3.95;2.58;;;4.10;96.70;;;;;;4866504;29;19928;-71
2021/12/10 01:29:32;;;;;;;4.07;2.50;;;4.00;96.70;;;;;;4869292;29;20041;-71
2021/12/10 01:32:03;;;;;;;4.78;2.63;;;4.00;96.70;;;;;;4851879;29;20532;-71
2021/12/10 01:34:33;;;;;;;4.65;2.80;;;4.00;96.70;;;;;;4849768;29;20041;-71
2021/12/10 01:37:02;;;;;;;4.47;3.05;;;4.00;96.70;;;;;;4849395;29;20436;-71
2021/12/10 01:39:33;;;;;;;4.50;3.03;;;3.90;96.70;;;;;;4868674;29;20053;-71
2021/12/10 01:42:14;;;;;;;6.97;4.22;;;3.80;96.70;;;;;;4866645;29;20109;-71
2021/12/10 01:44:46;;;;;;;4.78;3.45;;;3.90;96.70;;;;;;4868272;29;20049;-71
2021/12/10 01:47:17;;;;;;;6.97;3.80;;;3.80;96.70;;;;;;4867786;29;20041;-71
2021/12/10 01:49:46;;;;;;;7.88;3.97;;;3.70;96.70;;;;;;4871840;29;20045;-71
2021/12/10 01:52:16;;;;;;;5.78;4.28;;;3.90;96.70;;;;;;4872540;29;20044;-71
2021/12/10 01:54:47;;;;;;;6.25;4.22;;;3.70;96.70;;;;;;4854351;29;20041;-71
2021/12/10 01:57:17;;;;;;;5.03;3.83;;;3.60;96.70;;;;;;4866902;29;20493;-71
2021/12/10 01:59:48;;;;;;;5.18;4.07;;;3.70;96.70;;;;;;4855283;29;20072;-71
2021/12/10 02:02:19;;;;;;;6.80;3.80;;;3.80;96.70;;;;;;4868282;29;20429;-71
2021/12/10 02:04:50;;;;;;;6.45;4.13;;;3.70;96.70;;;;;;4854128;29;20427;-71
2021/12/10 02:07:22;;;;;;;6.35;4.35;;;3.80;96.70;;;;;;4854989;29;20387;-71
2021/12/10 02:09:52;;;;;;;4.50;3.67;;;3.60;96.70;;;;;;4848385;29;20049;-71
2021/12/10 02:12:20;;;;;;;6.13;4.07;;;3.60;96.70;;;;;;4869777;29;20041;-71
2021/12/10 02:14:58;;;;;;;5.78;4.18;;;3.70;96.70;;;;;;4867033;29;20033;-71
2021/12/10 02:17:28;;;;;;;5.80;4.10;;;3.60;96.70;;;;;;4851723;29;20485;-71
2021/12/10 02:20:04;;;;;;;5.18;3.90;;;3.70;96.70;;;;;;4832602;29;20053;-71
2021/12/10 02:22:33;;;;;;;5.20;3.80;;;3.70;96.70;;;;;;4870342;29;20048;-71
2021/12/10 02:25:02;;;;;;;5.95;4.00;;;3.70;96.70;;;;;;4869157;29;20310;-72
2021/12/10 02:27:32;;;;;;;5.03;3.80;;;3.70;96.70;;;;;;4855037;29;20526;-71
2021/12/10 02:30:00;;;;;;;4.90;3.92;;;3.70;96.70;;;;;;4870826;29;20458;-71
2021/12/10 02:32:28;;;;;;;4.75;3.70;;;3.70;96.70;;;;;;4851028;29;20504;-71
2021/12/10 02:34:56;;;;;;;7.47;3.92;;;3.60;96.70;;;;;;4854625;29;20440;-71
2021/12/10 02:37:25;;;;;;;5.53;3.92;;;3.60;96.70;;;;;;4867103;29;20052;-71
2021/12/10 02:39:54;;;;;;;5.68;4.38;;;3.50;96.70;;;;;;4866480;29;20057;-71
2021/12/10 02:42:22;;;;;;;4.97;4.03;;;3.40;96.70;;;;;;4867087;29;20550;-71
2021/12/10 02:44:50;;;;;;;7.20;4.50;;;3.50;96.70;;;;;;4871346;29;20050;-71
2021/12/10 02:47:20;;;;;;;4.93;3.90;;;3.40;96.70;;;;;;4866979;29;20052;-71
2021/12/10 02:49:48;;;;;;;8.13;4.70;;;3.50;96.70;;;;;;4866249;29;20057;-71
2021/12/10 02:52:17;;;;;;;6.03;4.28;;;3.50;96.70;;;;;;4869171;29;20037;-71
2021/12/10 02:54:45;;;;;;;5.90;4.30;;;3.60;96.70;;;;;;4836943;29;20485;-72
2021/12/10 02:57:17;;;;;;;6.40;4.13;;;3.60;96.70;;;;;;4856586;29;20053;-71
2021/12/10 02:59:46;;;;;;;5.85;3.95;;;3.50;96.70;;;;;;4856464;29;20053;-71
2021/12/10 03:02:17;;;;;;;8.07;4.05;;;3.60;96.70;;;;;;4869592;29;20126;-71
2021/12/10 03:04:47;;;;;;;6.45;4.18;;;3.70;96.70;;;;;;4852516;29;20068;-71
2021/12/10 03:07:18;;;;;;;8.32;4.53;;;3.70;96.70;;;;;;4865651;29;20053;-71
2021/12/10 03:09:48;;;;;;;5.43;3.85;;;3.60;96.70;;;;;;4871212;29;20073;-71
2021/12/10 03:12:20;;;;;;;6.47;4.00;;;3.60;96.70;;;;;;4853799;29;20053;-71
2021/12/10 03:14:53;;;;;;;5.43;3.40;;;3.70;96.70;;;;;;4870424;29;20049;-71
2021/12/10 03:17:26;;;;;;;3.97;2.83;;;3.60;96.70;;;;;;4870706;29;20577;-71
2021/12/10 03:19:55;;;;;;;3.38;2.63;;;3.60;96.70;;;;;;4854791;29;20079;-71
2021/12/10 03:22:25;;;;;;;3.40;2.70;;;3.50;96.70;;;;;;4870446;29;20037;-71
2021/12/10 03:24:53;;;;;;;4.07;2.78;;;3.60;96.70;;;;;;4871314;29;20049;-71
2021/12/10 03:27:23;;;;;;;3.63;2.70;;;3.40;96.70;;;;;;4869174;29;20745;-71
2021/12/10 03:29:52;;;;;;;2.90;2.38;;;3.30;96.70;;;;;;4869412;29;20049;-71
2021/12/10 03:32:23;;;;;;;2.97;2.33;;;3.20;96.70;;;;;;4854940;29;20052;-71
2021/12/10 03:34:52;;;;;;;3.15;2.33;;;3.20;96.70;;;;;;4870717;29;20053;-71
2021/12/10 03:37:20;;;;;;;2.92;2.17;;;3.20;96.70;;;;;;4869229;29;20061;-71
2021/12/10 03:39:50;;;;;;;2.47;2.10;;;3.20;96.70;;;;;;4855450;29;20053;-71
2021/12/10 03:42:19;;;;;;;3.28;1.92;;;3.20;96.70;;;;;;4869440;29;20479;-71
2021/12/10 03:44:48;;;;;;;2.42;1.98;;;3.20;96.70;;;;;;4873007;29;20057;-71
2021/12/10 03:47:17;;;;;;;3.05;1.98;;;3.20;96.70;;;;;;4866488;29;20056;-72
2021/12/10 03:49:45;;;;;;;2.65;1.90;;;3.30;96.70;;;;;;4855055;29;20113;-71
2021/12/10 03:52:13;;;;;;;2.63;2.20;;;3.30;96.70;;;;;;4853581;29;20052;-71
2021/12/10 03:54:42;;;;;;;3.72;2.40;;;3.30;96.70;;;;;;4870616;29;20439;-71
2021/12/10 03:57:10;;;;;;;2.70;2.08;;;3.20;96.70;;;;;;4854336;29;20052;-71
2021/12/10 03:59:38;;;;;;;4.82;2.25;;;3.30;96.70;;;;;;4871326;29;20067;-71
2021/12/10 04:02:09;;;;;;;3.00;2.05;;;3.30;96.70;;;;;;4867724;29;20367;-71
2021/12/10 04:04:40;;;;;;;4.00;2.45;;;3.40;96.70;;;;;;4869331;29;20041;-71
2021/12/10 04:07:12;;;;;;;2.78;2.08;;;3.30;96.70;;;;;;4870725;29;20084;-71
2021/12/10 04:09:40;;;;;;;4.35;2.50;;;3.30;96.70;;;;;;4855421;29;20056;-71
2021/12/10 04:12:10;;;;;;;2.78;2.38;;;3.40;96.70;;;;;;4878650;29;20044;-71
2021/12/10 04:14:40;;;;;;;2.60;2.40;;;3.40;96.70;;;;;;4869464;29;20463;-71
2021/12/10 04:17:09;;;;;;;3.05;2.38;;;3.40;96.70;;;;;;4871322;29;20108;-71
2021/12/10 04:19:38;;;;;;;2.58;2.28;;;3.50;96.70;;;;;;4856203;29;21462;-71
2021/12/10 04:22:08;;;;;;;4.03;2.40;;;3.50;96.70;;;;;;4869872;29;20036;-71
2021/12/10 04:24:38;;;;;;;3.97;2.40;;;3.50;96.70;;;;;;4869115;29;20044;-71
2021/12/10 04:27:09;;;;;;;4.75;2.55;;;3.50;96.70;;;;;;4870978;29;20627;-71
2021/12/10 04:29:37;;;;;;;3.25;2.55;;;3.40;96.70;;;;;;4869524;29;20511;-71
2021/12/10 04:32:09;;;;;;;3.03;2.63;;;3.50;96.70;;;;;;4851876;29;20041;-71
2021/12/10 04:34:37;;;;;;;3.42;2.80;;;3.50;96.70;;;;;;4852042;29;20045;-71
2021/12/10 04:37:08;;;;;;;3.58;2.80;;;3.40;96.70;;;;;;4869723;29;20068;-71
2021/12/10 04:39:40;;;;;;;3.15;2.53;;;3.40;96.70;;;;;;4868827;29;20053;-71
2021/12/10 04:42:08;;;;;;;4.47;2.80;;;3.50;96.70;;;;;;4871000;29;20041;-71
2021/12/10 04:44:35;;;;;;;4.55;2.83;;;3.30;96.70;;;;;;4871756;29;20044;-71
2021/12/10 04:47:04;;;;;;;5.75;3.13;;;3.30;96.70;;;;;;4856413;29;20053;-71
2021/12/10 04:49:33;;;;;;;5.72;3.20;;;3.30;96.70;;;;;;4854151;29;20458;-71
2021/12/10 04:52:02;;;;;;;4.00;3.03;;;3.30;96.70;;;;;;4868471;29;20044;-71
2021/12/10 04:54:30;;;;;;;3.45;3.00;;;3.20;96.70;;;;;;4852580;29;20048;-71
2021/12/10 04:56:59;;;;;;;4.63;3.20;;;3.20;96.70;;;;;;4864298;29;20053;-71
2021/12/10 04:59:30;;;;;;;3.78;3.15;;;3.20;96.70;;;;;;4868495;29;20828;-71
2021/12/10 05:02:00;;;;;;;4.50;3.17;;;3.20;96.70;;;;;;4854856;29;20072;-71
2021/12/10 05:04:29;;;;;;;3.97;2.83;;;3.20;96.70;;;;;;4869506;29;20049;-71
2021/12/10 05:06:59;;;;;;;4.22;2.85;;;3.20;96.70;;;;;;4870308;29;20061;-71
2021/12/10 05:09:28;;;;;;;3.75;2.88;;;3.20;96.70;;;;;;4869552;29;20478;-71
2021/12/10 05:11:56;;;;;;;4.25;3.00;;;3.20;96.70;;;;;;4853966;29;20037;-71
2021/12/10 05:14:26;;;;;;;4.07;3.03;;;3.20;96.70;;;;;;4852515;29;20053;-71
2021/12/10 05:16:59;;;;;;;4.30;3.28;;;3.20;96.70;;;;;;4874949;29;20040;-71
2021/12/10 05:19:28;;;;;;;4.45;3.08;;;3.30;96.70;;;;;;4870967;29;20052;-71
2021/12/10 05:21:59;;;;;;;3.13;2.67;;;3.30;96.70;;;;;;4869170;29;20140;-71
2021/12/10 05:24:28;;;;;;;5.43;2.95;;;3.40;96.70;;;;;;4870782;29;20040;-71
2021/12/10 05:26:57;;;;;;;3.75;3.00;;;3.30;96.70;;;;;;4869392;29;21145;-71
2021/12/10 05:29:26;;;;;;;4.70;3.20;;;3.20;96.70;;;;;;4868252;29;20049;-71
2021/12/10 05:31:58;;;;;;;5.57;3.33;;;3.10;96.70;;;;;;4866673;29;20144;-71
2021/12/10 05:34:27;;;;;;;4.63;3.25;;;3.20;96.70;;;;;;4867740;29;20412;-71
2021/12/10 05:36:56;;;;;;;4.32;3.15;;;3.30;96.70;;;;;;4866405;29;20230;-71
2021/12/10 05:39:26;;;;;;;3.92;3.05;;;3.20;96.70;;;;;;4873588;29;20034;-71
2021/12/10 05:41:54;;;;;;;4.47;3.35;;;3.20;96.70;;;;;;4857797;29;20045;-71
2021/12/10 05:44:22;;;;;;;9.35;3.75;;;3.20;96.70;;;;;;4853812;29;20075;-71
2021/12/10 05:46:50;;;;;;;6.28;4.30;;;3.20;96.70;;;;;;4855542;29;20469;-71
2021/12/10 05:49:17;;;;;;;4.32;3.92;;;3.10;96.70;;;;;;4879570;29;20045;-71
2021/12/10 05:51:45;;;;;;;5.70;3.92;;;3.10;96.70;;;;;;4869035;29;20045;-71
2021/12/10 05:54:13;;;;;;;5.13;3.53;;;3.20;96.70;;;;;;4855078;29;20041;-71
2021/12/10 05:56:42;;;;;;;3.95;3.38;;;3.30;96.70;;;;;;4836628;29;20516;-71
2021/12/10 05:59:10;;;;;;;4.20;3.30;;;3.30;96.70;;;;;;4868666;29;20124;-71
2021/12/10 06:01:38;;;;;;;4.57;3.55;;;3.30;96.70;;;;;;4867907;29;20044;-71
2021/12/10 06:04:07;;;;;;;3.80;3.15;;;3.30;96.70;;;;;;4869666;29;20092;-69
2021/12/10 06:06:35;;;;;;;6.35;3.60;;;3.30;96.70;;;;;;4852270;29;20151;-71
2021/12/10 06:09:07;;;;;;;5.63;3.28;;;3.30;96.70;;;;;;4852310;29;20053;-71
2021/12/10 06:11:36;;;;;;;4.57;3.38;;;3.40;96.70;;;;;;4868565;29;20041;-71
2021/12/10 06:14:07;;;;;;;5.38;3.08;;;3.30;96.70;;;;;;4866271;29;20052;-71
2021/12/10 06:16:35;;;;;;;5.32;3.00;;;3.40;96.70;;;;;;4868994;29;20521;-71
2021/12/10 06:19:06;;;;;;;4.03;3.00;;;3.40;96.70;;;;;;4868313;29;20037;-71
2021/12/10 06:21:34;;;;;;;4.45;3.13;;;3.40;96.70;;;;;;4867679;29;20052;-71
2021/12/10 06:24:04;;;;;;;5.75;3.40;;;3.40;96.70;;;;;;4855168;29;20383;-71
2021/12/10 06:26:32;;;;;;;4.05;3.03;;;3.40;96.70;;;;;;4866972;29;20056;-71
2021/12/10 06:29:00;;;;;;;3.90;3.28;;;3.50;96.70;;;;;;4851617;29;20744;-71
2021/12/10 06:31:30;;;;;;;4.45;3.35;;;3.40;96.70;;;;;;4853580;29;20045;-71
2021/12/10 06:34:03;;;;;;;3.22;2.75;;;3.30;96.70;;;;;;4870632;29;20064;-71
2021/12/10 06:36:31;;;;;;;3.40;2.90;;;3.40;96.70;;;;;;4851338;29;20068;-71
2021/12/10 06:39:01;;;;;;;4.18;3.00;;;3.50;96.70;;;;;;4865190;29;20055;-71
2021/12/10 06:41:29;;;;;;;5.65;3.33;;;3.50;96.70;;;;;;4866700;29;20078;-71
2021/12/10 06:43:57;;;;;;;5.70;3.50;;;3.50;96.70;;;;;;4870388;29;20514;-71
2021/12/10 06:46:25;;;;;;;5.35;3.47;;;3.50;96.70;;;;;;4869377;29;20124;-71
2021/12/10 06:48:54;;;;;;;5.30;3.90;;;3.50;96.70;;;;;;4866065;29;20057;-71
2021/12/10 06:51:22;;;;;;;8.13;4.53;;;3.50;96.70;;;;;;4869937;29;20040;-71
2021/12/10 06:53:50;;;;;;;5.53;3.78;;;3.50;96.70;;;;;;4868170;29;20040;-71
2021/12/10 06:56:21;;;;;;;5.78;3.53;;;3.50;96.70;;;;;;4871823;29;20502;-71
2021/12/10 06:58:49;;;;;;;3.75;2.97;;;3.50;96.70;;;;;;4872650;29;20049;-71
2021/12/10 07:01:22;;;;;;;4.22;3.33;;;3.60;96.70;;;;;;4858180;29;20573;-71
2021/12/10 07:03:51;;;;;;;4.80;3.42;;;3.60;96.70;;;;;;4870475;29;20064;-71
2021/12/10 07:06:20;;;;;;;4.15;3.10;;;3.60;96.70;;;;;;4871360;29;20041;-71
2021/12/10 07:08:49;;;;;;;3.92;3.03;;;3.70;96.70;;;;;;4872945;29;20044;-71
2021/12/10 07:11:18;;;;;;;3.53;3.10;;;3.70;96.70;;;;;;4873300;29;20045;-71
2021/12/10 07:13:49;;;;;;;5.65;2.75;;;3.60;96.70;;;;;;4871980;29;20049;-71
2021/12/10 07:16:18;;;;;;;4.20;3.25;;;3.60;96.70;;;;;;4873604;29;20500;-71
2021/12/10 07:18:46;;;;;;;3.67;3.13;;;3.50;96.70;;;;;;4871537;29;20044;-71
2021/12/10 07:21:14;;;;;;;5.57;3.75;;;3.40;96.70;;;;;;4871853;29;20096;-71
2021/12/10 07:23:44;;;;;;;7.30;3.28;;;3.40;96.70;;;;;;4869153;29;20128;-71
2021/12/10 07:26:13;;;;;;;4.47;3.40;;;3.40;96.70;;;;;;4853401;29;20113;-71
2021/12/10 07:28:41;;;;;;;4.68;3.10;;;3.40;96.70;;;;;;4855291;29;20049;-71
2021/12/10 07:31:10;;;;;;;5.88;3.33;;;3.40;96.70;;;;;;4854209;29;20140;-71
2021/12/10 07:33:39;;;;;;;5.57;3.50;;;3.50;96.70;;;;;;4866856;29;20049;-71
2021/12/10 07:36:07;;;;;;;5.55;3.28;;;3.50;96.70;;;;;;4852915;29;20223;-73
2021/12/10 07:38:35;;;;;;;3.65;2.67;;;3.60;96.70;;;;;;4871174;29;20579;-72
2021/12/10 07:41:06;;;;;;;3.88;2.70;;;3.70;96.70;;;;;;4853217;29;20125;-72
2021/12/10 07:43:35;;;;;;;5.97;3.47;;;3.70;96.70;;;;;;4870565;29;20044;-72
2021/12/10 07:46:04;;;;;;;4.50;2.95;;;3.80;96.70;;;;;;4869636;29;20139;-72
2021/12/10 07:48:34;;;;;;;6.35;3.15;;;3.90;96.70;;;;;;4873036;29;20053;-72
2021/12/10 07:51:09;;;;;;;4.25;3.08;;;4.00;96.70;;;;;;4870343;29;20079;-72
2021/12/10 07:53:38;;;;;;;4.43;3.03;;;4.10;96.70;;;;;;4874161;29;20048;-72
2021/12/10 07:56:10;;;;;;;4.07;3.10;;;4.10;96.70;;;;;;4853808;29;20135;-72
2021/12/10 07:58:42;;;;;;;2.85;2.38;;;4.20;96.70;;;;;;4872225;29;20044;-72
2021/12/10 08:01:12;;;;;;;4.38;3.20;;;4.20;96.70;;;;;;4875007;29;20059;-71
2021/12/10 08:03:40;;;;;;;4.10;2.92;;;4.20;96.70;;;;;;4868796;29;20131;-71
2021/12/10 08:06:09;;;;;;;4.28;3.08;;;4.20;96.70;;;;;;4868320;29;20238;-71
2021/12/10 08:08:37;;;;;;;3.45;2.67;;;4.20;96.70;;;;;;4866650;29;20056;-72
2021/12/10 08:11:07;;;;;;;4.15;2.72;;;4.20;96.70;;;;;;4871029;29;20093;-71
2021/12/10 08:13:35;;;;;;;5.50;3.08;;;4.30;96.70;;;;;;4871644;29;20045;-71
2021/12/10 08:16:03;;;;;;;3.00;2.33;;;4.30;96.70;;;;;;4852875;29;20729;-71
2021/12/10 08:18:31;;;;;;;3.35;2.53;;;4.30;96.70;;;;;;4852915;29;20049;-71
2021/12/10 08:21:00;;;;;;;3.83;3.03;;;4.30;96.70;;;;;;4870274;29;20060;-72
2021/12/10 08:23:29;;;;;;;3.63;2.80;;;4.30;96.70;;;;;;4870357;29;20460;-71
2021/12/10 08:25:57;;;;;;;5.05;2.95;;;4.30;96.70;;;;;;4838379;29;20400;-72
2021/12/10 08:28:27;;;;;;;3.63;2.97;;;4.30;96.70;;;;;;4873055;29;20073;-73
2021/12/10 08:30:56;;;;;;;4.60;3.20;;;4.30;96.70;;;;;;4871619;29;20067;-72
2021/12/10 08:33:26;;;;;;;3.97;2.80;;;4.30;96.70;;;;;;4872291;29;20533;-71
2021/12/10 08:35:58;;;;;;;5.13;3.30;;;4.30;96.70;;;;;;4869398;29;20132;-71
2021/12/10 08:38:26;;;;;;;4.30;3.13;;;4.40;96.70;;;;;;4869189;29;20404;-71
2021/12/10 08:40:58;;;;;;;4.22;2.85;;;4.40;96.70;;;;;;4870897;29;20136;-71
2021/12/10 08:43:29;;;;;;;3.70;2.88;;;4.50;96.70;;;;;;4868717;29;20044;-71
2021/12/10 08:45:58;;;;;;;6.97;3.17;;;4.60;96.70;;;;;;4872127;29;20054;-71
2021/12/10 08:48:28;;;;;;;3.75;3.28;;;4.60;96.70;;;;;;4868468;29;20045;-72
2021/12/10 08:50:58;;;;;;;5.30;3.50;;;4.60;96.70;;;;;;4868359;29;20048;-71
2021/12/10 08:53:26;;;;;;;6.18;3.35;;;4.60;96.70;;;;;;4851438;29;20081;-72
2021/12/10 08:55:57;;;;;;;6.18;4.40;;;4.60;96.70;;;;;;4868707;29;20048;-72
2021/12/10 08:58:28;;;;;;;4.35;3.58;;;4.70;96.70;;;;;;4869085;29;20048;-71
2021/12/10 09:01:00;;;;;;;4.43;3.20;;;4.70;96.70;;;;;;4854098;29;20049;-72
2021/12/10 09:03:48;;;;;;;3.90;3.05;;;4.80;96.70;;;;;;4868032;29;20052;-72
2021/12/10 09:06:18;;;;;;;4.57;3.28;;;4.90;96.70;;;;;;4869284;29;20048;-72
2021/12/10 09:08:46;;;;;;;4.47;3.67;;;5.00;96.70;;;;;;4855350;29;20071;-72
2021/12/10 09:11:15;;;;;;;6.05;3.67;;;5.00;96.70;;;;;;4866367;29;20495;-73
2021/12/10 09:13:54;;;;;;;4.88;3.53;;;5.00;96.70;;;;;;4868424;29;20049;-72
2021/12/10 09:16:27;;;;;;;4.60;3.60;;;5.10;96.70;;;;;;4854199;29;20515;-72
2021/12/10 09:18:58;;;;;;;4.60;3.42;;;5.00;96.70;;;;;;4870686;29;20097;-71
2021/12/10 09:21:26;;;;;;;5.18;3.63;;;5.00;96.70;;;;;;4852604;29;20045;-71
2021/12/10 09:24:00;;;;;;;6.05;3.58;;;5.10;96.70;;;;;;4870416;29;20068;-71
2021/12/10 09:26:29;;;;;;;6.30;3.60;;;5.10;96.70;;;;;;4871336;29;20059;-71
2021/12/10 09:29:00;;;;;;;4.45;3.33;;;5.10;96.70;;;;;;4872103;29;20085;-72
2021/12/10 09:31:28;;;;;;;5.20;3.55;;;5.10;96.70;;;;;;4875689;29;20478;-71
2021/12/10 09:33:58;;;;;;;4.45;3.50;;;5.10;96.70;;;;;;4870206;29;20041;-72
2021/12/10 09:36:26;;;;;;;5.22;3.75;;;5.10;96.70;;;;;;4856587;29;20053;-72
2021/12/10 09:38:56;;;;;;;5.68;4.00;;;5.10;96.70;;;;;;4857392;29;20377;-72
2021/12/10 09:41:24;;;;;;;4.47;3.50;;;5.10;96.70;;;;;;4873337;29;20048;-72
2021/12/10 09:43:52;;;;;;;5.18;3.90;;;5.10;96.70;;;;;;4870927;29;20057;-72
2021/12/10 09:46:22;;;;;;;5.93;3.90;;;5.10;96.70;;;;;;4867439;29;20044;-73
2021/12/10 09:48:50;;;;;;;4.50;3.83;;;5.10;96.70;;;;;;4877675;29;20053;-71
2021/12/10 09:51:23;;;;;;;4.18;3.25;;;5.10;96.70;;;;;;4875151;29;20518;-73
2021/12/10 09:53:55;;;;;;;5.03;3.50;;;5.10;96.70;;;;;;4863924;29;20072;-71
2021/12/10 09:56:23;;;;;;;6.68;3.75;;;5.10;96.70;;;;;;4867141;29;20314;-71
2021/12/10 09:58:53;;;;;;;5.97;3.42;;;5.10;96.70;;;;;;4872096;29;20164;-71
2021/12/10 10:01:25;;;;;;;5.28;3.60;;;5.20;96.70;;;;;;4867817;29;20292;-71
2021/12/10 10:04:00;;;;;;;5.10;3.53;;;5.20;96.70;;;;;;4871592;29;20061;-71
2021/12/10 10:06:34;;;;;;;5.40;3.22;;;5.20;96.70;;;;;;4867473;29;20053;-71
2021/12/10 10:09:09;;;;;;;4.47;3.20;;;5.20;96.70;;;;;;4867452;29;20052;-70
2021/12/10 10:11:53;;;;;;;5.00;3.30;;;5.20;96.70;;;;;;4864223;29;20508;-71
2021/12/10 10:14:22;;;;;;;4.35;3.00;;;5.20;96.70;;;;;;4867959;29;20037;-71
2021/12/10 10:16:51;;;;;;;4.18;2.85;;;5.20;96.70;;;;;;4866193;29;20053;-71
2021/12/10 10:19:20;;;;;;;3.92;3.25;;;5.20;96.70;;;;;;4867685;29;20523;-71
2021/12/10 10:21:56;;;;;;;3.55;2.90;;;5.20;96.70;;;;;;4850605;29;20041;-71
2021/12/10 10:24:27;;;;;;;4.97;3.42;;;5.30;96.70;;;;;;4836222;29;20053;-71
2021/12/10 10:26:59;;;;;;;3.70;2.88;;;5.30;96.70;;;;;;4850644;29;20801;-71
2021/12/10 10:29:32;;;;;;;4.38;3.42;;;5.30;96.70;;;;;;4853437;29;20412;-71
2021/12/10 10:32:09;;;;;;;4.35;2.92;;;5.30;96.70;;;;;;4874735;29;20108;-71
2021/12/10 10:34:41;;;;;;;4.85;3.10;;;5.30;96.70;;;;;;4867921;29;20048;-70
2021/12/10 10:37:09;;;;;;;4.30;3.13;;;5.40;96.70;;;;;;4867416;29;20055;-71
2021/12/10 10:39:40;;;;;;;6.25;4.10;;;5.40;96.70;;;;;;4865434;29;20049;-70
2021/12/10 10:42:13;;;;;;;6.65;4.32;;;5.40;96.70;;;;;;4867392;29;20073;-71
2021/12/10 10:44:57;;;;;;;8.55;5.20;;;5.30;96.70;;;;;;4864287;29;20081;-71
2021/12/10 10:47:27;;;;;;;7.68;4.80;;;5.30;96.70;;;;;;4870160;29;20156;-71
2021/12/10 10:49:57;;;;;;;7.70;5.38;;;5.30;96.70;;;;;;4851623;29;20052;-70
2021/12/10 10:52:28;;;;;;;7.13;5.45;;;5.20;96.70;;;;;;4850647;29;20076;-71
2021/12/10 10:55:00;;;;;;;7.10;4.60;;;5.20;96.70;;;;;;4849702;29;20060;-71
2021/12/10 10:57:31;;;;;;;9.63;5.75;;;5.20;96.70;;;;;;4869086;29;20091;-71
2021/12/10 11:00:14;;;;;;;8.63;5.63;;;5.20;96.70;;;;;;4850122;29;20045;-71
2021/12/10 11:02:51;;;;;;;7.72;5.55;;;5.20;96.70;;;;;;4868150;29;20072;-70
2021/12/10 11:05:23;;;;;;;9.13;5.85;;;5.20;96.70;;;;;;4865838;29;20618;-71
2021/12/10 11:07:52;;;;;;;8.55;5.97;;;5.30;96.70;;;;;;4873106;29;20139;-71
2021/12/10 11:10:28;;;;;;;7.68;5.10;;;5.30;96.70;;;;;;4874489;29;20466;-71
2021/12/10 11:13:14;;;;;;;7.05;4.90;;;5.40;96.70;;;;;;4866974;29;20121;-71
2021/12/10 11:15:56;;;;;;;5.80;4.70;;;5.40;96.70;;;;;;4866168;29;20049;-71
2021/12/10 11:18:26;;;;;;;6.70;5.75;;;5.40;96.70;;;;;;4851646;29;20041;-71
2021/12/10 11:20:55;;;;;;;16.00;10.88;;;5.40;96.70;;;;;;4851896;29;20164;-71
2021/12/10 11:23:28;;;;;;;13.80;9.25;;;5.40;96.70;;;;;;4867217;29;20052;-71
2021/12/10 11:25:56;;;;;;;10.00;7.70;;;5.40;96.70;;;;;;4865551;29;20516;-71
2021/12/10 11:28:31;;;;;;;8.27;6.22;;;5.40;96.70;;;;;;4862555;29;20139;-71
2021/12/10 11:31:04;;;;;;;8.77;6.97;;;5.40;96.70;;;;;;4866285;29;20143;-71
2021/12/10 11:33:37;;;;;;;10.68;7.30;;;5.50;96.70;;;;;;4854008;29;20049;-71
2021/12/10 11:36:09;;;;;;;7.38;6.22;;;5.50;96.70;;;;;;4855529;29;20045;-71
2021/12/10 11:38:38;;;;;;;15.18;9.98;;;5.50;96.70;;;;;;4870898;29;20049;-70
2021/12/10 11:41:08;;;;;;;21.65;13.15;;;5.50;96.70;;;;;;4869736;29;20516;-71
2021/12/10 11:43:54;;;;;;;18.20;12.30;;;5.60;96.70;;;;;;4872642;29;20047;-71
2021/12/10 11:49:41;;;;;;;12.07;8.32;;;5.60;96.70;;;;;;4833928;29;20591;-71
2021/12/10 11:52:12;;;;;;;16.73;11.57;;;5.60;96.70;;;;;;4852982;29;20111;-71
2021/12/10 11:54:43;;;;;;;17.02;11.93;;;5.60;96.70;;;;;;4845117;29;20057;-71
2021/12/10 11:57:14;;;;;;;13.05;9.27;;;5.60;96.70;;;;;;4869183;29;20109;-71
2021/12/10 11:59:46;;;;;;;8.07;6.60;;;5.60;96.70;;;;;;4853247;29;20496;-71
2021/12/10 12:02:18;;;;;;;9.85;6.22;;;5.60;96.70;;;;;;4856667;29;20060;-71
2021/12/10 12:04:50;;;;;;;7.78;5.22;;;5.60;96.70;;;;;;4867226;29;20428;-71
2021/12/10 12:07:27;;;;;;;7.18;5.63;;;5.60;96.70;;;;;;4868978;29;20069;-71
2021/12/10 12:09:58;;;;;;;5.78;4.30;;;5.60;96.70;;;;;;4854449;29;20149;-71
2021/12/10 12:12:29;;;;;;;6.65;4.82;;;5.70;96.70;;;;;;4853924;29;20082;-70
2021/12/10 12:15:15;;;;;;;4.70;3.88;;;5.70;96.70;;;;;;4854947;29;20760;-70
2021/12/10 12:17:46;;;;;;;5.00;3.53;;;5.70;96.70;;;;;;4867969;29;20117;-70
2021/12/10 12:20:33;;;;;;;5.88;4.00;;;5.70;96.70;;;;;;4870556;29;20141;-70
2021/12/10 12:25:58;;;;;;;3.40;2.67;;;5.70;96.70;;;;;;4871279;29;20507;-71
2021/12/10 12:28:39;;;;;;;2.60;2.33;;;5.60;96.70;;;;;;4873457;29;20091;-71
2021/12/10 12:31:30;;;;;;;3.72;2.47;;;5.70;96.70;;;;;;4855507;29;20072;-71
2021/12/10 12:34:02;;;;;;;4.75;3.53;;;5.60;96.70;;;;;;4851723;29;20053;-71
2021/12/10 12:36:37;;;;;;;4.88;3.65;;;5.70;96.70;;;;;;4865480;29;20048;-71
2021/12/10 12:39:13;;;;;;;5.55;3.35;;;5.70;96.70;;;;;;4871172;29;20037;-71
2021/12/10 12:41:44;;;;;;;5.22;3.50;;;5.80;96.70;;;;;;4873164;29;20052;-71
2021/12/10 12:44:17;;;;;;;4.25;2.92;;;5.80;96.70;;;;;;4852761;29;20409;-71
2021/12/10 12:47:08;;;;;;;3.80;2.50;;;5.90;96.70;;;;;;4869456;29;20160;-71
2021/12/10 12:50:05;;;;;;;4.55;2.78;;;5.90;96.70;;;;;;4868832;29;20056;-71
2021/12/10 12:52:42;;;;;;;3.92;2.63;;;5.90;96.70;;;;;;4869607;29;20048;-71
2021/12/10 12:55:22;;;;;;;4.15;2.65;;;5.80;96.70;;;;;;4854257;29;20508;-71
2021/12/10 12:57:53;;;;;;;4.28;2.58;;;5.80;96.70;;;;;;4854043;29;20053;-71
2021/12/10 13:00:51;;;;;;;3.38;2.60;;;5.80;96.70;;;;;;4869019;29;20068;-71
2021/12/10 13:03:25;;;;;;;3.60;2.50;;;5.80;96.70;;;;;;4868851;29;20037;-71
2021/12/10 13:06:17;;;;;;;3.35;2.40;;;5.90;96.70;;;;;;4867321;29;20049;-71
2021/12/10 13:08:59;;;;;;;3.58;2.42;;;5.90;96.70;;;;;;4847670;29;20470;-71
2021/12/10 13:11:33;;;;;;;3.30;2.53;;;5.90;96.70;;;;;;4849636;29;20045;-71
2021/12/10 13:14:12;;;;;;;3.03;2.10;;;5.90;96.70;;;;;;4850855;29;20101;-71
2021/12/10 13:16:45;;;;;;;3.17;2.42;;;5.90;96.70;;;;;;4835847;29;20068;-71
2021/12/10 13:19:16;;;;;;;4.00;2.80;;;6.00;96.70;;;;;;4850179;29;20049;-71
2021/12/10 13:21:59;;;;;;;3.33;2.90;;;6.00;96.70;;;;;;4849743;29;20069;-71
2021/12/10 13:24:28;;;;;;;4.60;3.05;;;6.10;96.70;;;;;;4850170;29;20408;-71
2021/12/10 13:26:57;;;;;;;5.90;3.80;;;6.10;96.70;;;;;;4850181;29;20056;-71
2021/12/10 13:29:27;;;;;;;5.53;3.72;;;6.00;96.70;;;;;;4832415;29;20082;-71
2021/12/10 13:31:56;;;;;;;5.95;3.80;;;6.00;96.70;;;;;;4835653;29;20045;-71